Time;durP1;ratioP1;P1;durP2;ratioP2;P2;SDS_P1;SDS_P2;PMS_P1;PMS_P2;Temp;Humidity;BMP_temperature;BMP_pressure;BME280_temperature;BME280_humidity;BME280_pressure;Samples;Min_cycle;Max_cycle;Signal;HPM_P1;HPM_P2
2022/02/11 00:02:17;;;;;;;15.60;3.25;;;2.80;91.80;;;;;;4933270;29;20071;-84
2022/02/11 00:07:20;;;;;;;12.52;3.00;;;2.70;92.10;;;;;;4930602;29;20059;-84
2022/02/11 00:09:45;;;;;;;15.45;2.92;;;2.70;92.30;;;;;;4943697;28;20642;-83
2022/02/11 00:12:11;;;;;;;14.18;3.58;;;2.70;92.50;;;;;;4938507;29;20091;-83
2022/02/11 00:14:49;;;;;;;9.20;2.78;;;2.70;92.50;;;;;;4950395;28;20061;-83
2022/02/11 00:17:15;;;;;;;11.82;3.08;;;2.60;92.60;;;;;;4930937;29;20442;-84
2022/02/11 00:19:41;;;;;;;11.00;3.20;;;2.60;92.80;;;;;;4932149;29;20055;-84
2022/02/11 00:22:06;;;;;;;10.57;3.67;;;2.60;92.80;;;;;;4920667;29;20023;-84
2022/02/11 00:24:32;;;;;;;10.95;3.00;;;2.60;92.90;;;;;;4931204;29;20028;-84
2022/02/11 00:27:36;;;;;;;11.05;2.95;;;2.50;92.90;;;;;;4922700;29;20028;-84
2022/02/11 00:32:25;;;;;;;;;;;2.50;93.20;;;;;;4931825;29;20381;-83
2022/02/11 00:34:58;;;;;;;;;;;2.40;93.10;;;;;;4941904;29;19926;-84
2022/02/11 00:37:25;;;;;;;;;;;2.40;93.30;;;;;;4934387;29;19915;-83
2022/02/11 00:43:22;;;;;;;;;;;2.20;93.40;;;;;;4930119;29;19915;-83
2022/02/11 01:03:59;;;;;;;;;;;1.90;94.40;;;;;;4931519;29;19939;-86
2022/02/11 01:06:25;;;;;;;;;;;1.90;94.50;;;;;;4920531;29;19911;-85
2022/02/11 01:08:51;;;;;;;;;;;1.80;94.50;;;;;;4937660;28;19911;-86
2022/02/11 01:11:29;;;;;;;;;;;1.80;94.50;;;;;;4930605;29;19915;-86
2022/02/11 01:13:55;;;;;;;;;;;1.80;94.80;;;;;;4930202;29;19918;-86
2022/02/11 01:16:27;;;;;;;;;;;1.90;94.90;;;;;;4928419;29;19998;-86
2022/02/11 01:19:03;;;;;;;;;;;1.80;94.80;;;;;;4925714;29;20287;-86
2022/02/11 01:21:38;;;;;;;;;;;1.80;94.70;;;;;;4956467;28;19910;-86
2022/02/11 01:24:20;;;;;;;;;;;1.80;94.90;;;;;;4941849;29;19914;-86
2022/02/11 01:32:19;;;;;;;;;;;1.80;95.00;;;;;;4924263;29;19958;-86
2022/02/11 01:35:01;;;;;;;;;;;1.80;95.00;;;;;;4927200;29;19911;-86
2022/02/11 01:40:37;;;;;;;;;;;1.80;95.00;;;;;;4923988;29;19918;-86
2022/02/11 01:45:45;;;;;;;;;;;1.70;95.00;;;;;;4937938;29;20006;-85
2022/02/11 01:50:56;;;;;;;;;;;1.60;95.10;;;;;;4929161;29;20001;-86
2022/02/11 01:58:50;;;;;;;;;;;1.70;95.10;;;;;;4926864;29;19926;-86
2022/02/11 02:06:35;;;;;;;;;;;1.70;95.10;;;;;;4931661;29;20282;-86
2022/02/11 02:09:24;;;;;;;;;;;1.80;95.00;;;;;;4933128;29;20375;-86
2022/02/11 02:25:30;;;;;;;;;;;1.70;94.80;;;;;;4880616;29;19918;-86
2022/02/11 02:28:22;;;;;;;;;;;1.70;95.00;;;;;;4906094;29;19915;-86
2022/02/11 02:38:49;;;;;;;;;;;1.80;94.80;;;;;;4931172;29;20275;-86
2022/02/11 02:57:53;;;;;;;;;;;1.70;94.50;;;;;;4927668;29;19918;-86
2022/02/11 03:49:37;;;;;;;;;;;1.90;94.10;;;;;;4935849;29;19965;-85
2022/02/11 03:55:49;;;;;;;;;;;1.80;93.90;;;;;;4923905;29;20421;-85
2022/02/11 04:26:06;;;;;;;;;;;1.50;94.60;;;;;;4936090;29;19954;-85
2022/02/11 04:53:43;;;;;;;;;;;1.20;95.00;;;;;;4933872;29;20032;-85
2022/02/11 04:55:48;;;;;;;;;;;1.20;95.10;;;;;;4927339;29;19926;-85
2022/02/11 05:00:58;;;;;;;;;;;1.30;95.10;;;;;;4927858;29;20274;-85
2022/02/11 05:03:23;;;;;;;;;;;1.30;95.10;;;;;;4943583;28;19911;-85
2022/02/11 05:05:52;;;;;;;;;;;1.40;95.10;;;;;;4930213;29;19946;-85
2022/02/11 05:08:24;;;;;;;;;;;1.30;95.00;;;;;;4933031;29;19911;-85
2022/02/11 05:10:51;;;;;;;;;;;1.30;95.00;;;;;;4928475;29;19914;-84
2022/02/11 05:13:17;;;;;;;;;;;1.20;94.90;;;;;;4930274;29;19913;-84
2022/02/11 05:15:43;;;;;;;;;;;1.40;95.10;;;;;;4929063;29;19975;-85
2022/02/11 05:18:08;;;;;;;;;;;1.30;95.00;;;;;;4933752;29;19910;-85
2022/02/11 05:20:34;;;;;;;;;;;1.50;95.00;;;;;;4932878;29;20291;-85
2022/02/11 05:23:06;;;;;;;;;;;1.50;94.80;;;;;;4923104;29;20014;-84
2022/02/11 05:25:35;;;;;;;;;;;1.40;94.80;;;;;;4932762;29;19907;-84
2022/02/11 05:28:00;;;;;;;;;;;1.40;94.70;;;;;;4927123;29;19914;-86
2022/02/11 05:30:26;;;;;;;;;;;1.40;94.70;;;;;;4940644;29;20000;-85
2022/02/11 05:32:51;;;;;;;;;;;1.40;94.80;;;;;;4936875;29;19911;-85
2022/02/11 05:35:17;;;;;;;;;;;1.50;94.80;;;;;;4943892;29;19910;-85
2022/02/11 05:37:43;;;;;;;;;;;1.50;94.70;;;;;;4924750;29;19958;-84
2022/02/11 05:40:08;;;;;;;;;;;1.50;94.70;;;;;;4935951;29;19907;-85
2022/02/11 05:42:34;;;;;;;;;;;1.60;94.60;;;;;;4943709;29;19911;-86
2022/02/11 05:44:59;;;;;;;;;;;1.60;94.40;;;;;;4933132;29;20457;-86
2022/02/11 05:47:25;;;;;;;;;;;1.70;94.40;;;;;;4924380;29;19915;-86
2022/02/11 05:49:50;;;;;;;;;;;1.70;94.20;;;;;;4922555;29;19998;-86
2022/02/11 05:52:16;;;;;;;;;;;1.70;94.00;;;;;;4932797;29;19922;-87
2022/02/11 05:54:41;;;;;;;;;;;1.80;94.00;;;;;;4940598;29;19919;-86
2022/02/11 05:57:07;;;;;;;;;;;1.80;93.90;;;;;;4936203;29;19914;-86
2022/02/11 05:59:32;;;;;;;;;;;1.80;93.90;;;;;;4936448;29;20271;-85
2022/02/11 06:01:58;;;;;;;;;;;1.90;93.90;;;;;;4933814;29;20001;-85
2022/02/11 06:04:24;;;;;;;;;;;1.90;93.80;;;;;;4947942;29;19968;-85
2022/02/11 06:06:53;;;;;;;;;;;2.00;93.60;;;;;;4919700;29;20359;-87
2022/02/11 06:09:18;;;;;;;;;;;2.00;93.50;;;;;;4941842;28;19923;-86
2022/02/11 06:11:47;;;;;;;;;;;2.00;93.40;;;;;;4943914;29;19907;-87
2022/02/11 06:14:13;;;;;;;;;;;2.10;93.40;;;;;;4932717;29;20276;-87
2022/02/11 06:16:38;;;;;;;;;;;2.10;93.30;;;;;;4931490;29;19975;-86
2022/02/11 06:19:04;;;;;;;;;;;2.10;93.30;;;;;;4933373;29;19961;-86
2022/02/11 06:21:29;;;;;;;;;;;2.20;93.20;;;;;;4930851;29;19970;-86
2022/02/11 06:23:58;;;;;;;;;;;2.20;93.20;;;;;;4932368;29;19933;-85
2022/02/11 06:26:23;;;;;;;;;;;2.20;93.10;;;;;;4928004;29;19918;-86
2022/02/11 06:28:52;;;;;;;;;;;2.30;93.00;;;;;;4932408;29;19911;-86
2022/02/11 06:31:18;;;;;;;;;;;2.30;93.00;;;;;;4930199;29;19954;-86
2022/02/11 06:33:44;;;;;;;;;;;2.30;93.00;;;;;;4944513;28;19907;-87
2022/02/11 06:36:09;;;;;;;;;;;2.30;93.30;;;;;;4916728;29;19911;-86
2022/02/11 06:38:35;;;;;;;;;;;2.20;93.50;;;;;;4938860;28;19922;-86
2022/02/11 06:41:00;;;;;;;;;;;2.10;93.70;;;;;;4945770;28;19934;-86
2022/02/11 06:43:26;;;;;;;;;;;2.00;94.00;;;;;;4942279;28;19906;-85
2022/02/11 06:45:52;;;;;;;;;;;1.80;94.10;;;;;;4931043;29;20379;-85
2022/02/11 06:48:21;;;;;;;;;;;1.70;94.60;;;;;;4927072;29;19915;-85
2022/02/11 06:50:47;;;;;;;;;;;1.60;94.90;;;;;;4930527;29;19918;-85
2022/02/11 06:53:14;;;;;;;;;;;1.60;95.10;;;;;;4932609;29;20029;-85
2022/02/11 06:55:40;;;;;;;;;;;1.50;95.10;;;;;;4933373;29;19926;-85
2022/02/11 06:58:06;;;;;;;;;;;1.40;95.40;;;;;;4927815;29;19919;-85
2022/02/11 07:00:31;;;;;;;;;;;1.30;95.40;;;;;;4932735;29;20282;-85
2022/02/11 07:02:57;;;;;;;;;;;1.20;95.50;;;;;;4945156;29;19910;-85
2022/02/11 07:05:23;;;;;;;;;;;1.10;95.60;;;;;;4929453;29;19950;-84
2022/02/11 07:07:49;;;;;;;;;;;1.10;95.70;;;;;;4924304;29;20002;-85
2022/02/11 07:10:15;;;;;;;;;;;1.10;95.80;;;;;;4935643;29;19907;-85
2022/02/11 07:12:40;;;;;;;;;;;1.10;95.90;;;;;;4937704;29;19939;-85
2022/02/11 07:15:06;;;;;;;;;;;1.10;96.00;;;;;;4939011;29;19911;-85
2022/02/11 07:17:33;;;;;;;;;;;1.10;96.20;;;;;;4944851;28;19953;-86
2022/02/11 07:19:59;;;;;;;;;;;1.20;96.20;;;;;;4934864;29;20279;-86
2022/02/11 07:22:24;;;;;;;;;;;1.20;96.20;;;;;;4934826;29;19911;-85
2022/02/11 07:24:51;;;;;;;;;;;1.20;96.30;;;;;;4940257;29;19922;-86
2022/02/11 07:27:17;;;;;;;;;;;1.30;96.40;;;;;;4946738;29;19933;-85
2022/02/11 07:29:42;;;;;;;;;;;1.30;96.40;;;;;;4922588;29;19907;-86
2022/02/11 07:32:10;;;;;;;;;;;1.30;96.40;;;;;;4928193;29;19914;-86
2022/02/11 07:34:37;;;;;;;;;;;1.30;96.50;;;;;;4936972;29;19919;-85
2022/02/11 07:37:03;;;;;;;;;;;1.40;96.50;;;;;;4933409;29;19954;-85
2022/02/11 07:39:30;;;;;;;;;;;1.40;96.50;;;;;;4926071;29;19910;-86
2022/02/11 07:41:56;;;;;;;;;;;1.50;96.60;;;;;;4946555;29;19910;-85
2022/02/11 07:44:22;;;;;;;;;;;1.50;96.60;;;;;;4938697;29;20414;-85
2022/02/11 07:46:48;;;;;;;;;;;1.50;96.70;;;;;;4935104;29;19910;-86
2022/02/11 07:49:14;;;;;;;;;;;1.60;96.70;;;;;;4923292;29;20382;-86
2022/02/11 07:51:39;;;;;;;;;;;1.70;96.70;;;;;;4946831;29;19911;-86
2022/02/11 07:54:07;;;;;;;;;;;1.70;96.70;;;;;;4935022;29;20410;-86
2022/02/11 07:56:32;;;;;;;;;;;1.70;96.70;;;;;;4935012;29;19922;-86
2022/02/11 07:58:58;;;;;;;;;;;1.80;96.70;;;;;;4938504;29;19997;-86
2022/02/11 08:01:23;;;;;;;;;;;1.80;96.70;;;;;;4933354;29;19910;-86
2022/02/11 08:03:51;;;;;;;;;;;1.90;96.70;;;;;;4941716;29;19914;-86
2022/02/11 08:06:17;;;;;;;;;;;1.90;96.70;;;;;;4928301;29;19915;-86
2022/02/11 08:08:42;;;;;;;;;;;1.90;96.70;;;;;;4934218;29;19915;-88
2022/02/11 08:11:08;;;;;;;;;;;1.90;96.70;;;;;;4935419;29;20384;-85
2022/02/11 08:13:33;;;;;;;;;;;1.90;96.70;;;;;;4935843;29;19918;-86
2022/02/11 08:15:59;;;;;;;;;;;2.00;96.80;;;;;;4936964;29;19918;-86
2022/02/11 08:18:24;;;;;;;;;;;2.00;96.80;;;;;;4943773;28;19910;-86
2022/02/11 08:20:50;;;;;;;;;;;2.00;96.60;;;;;;4948884;28;19922;-86
2022/02/11 08:23:16;;;;;;;;;;;1.90;96.60;;;;;;4935729;29;20315;-86
2022/02/11 08:25:41;;;;;;;;;;;1.90;96.60;;;;;;4931653;29;19911;-85
2022/02/11 08:28:07;;;;;;;;;;;1.90;96.70;;;;;;4929001;29;20006;-86
2022/02/11 08:30:32;;;;;;;;;;;1.90;96.60;;;;;;4944145;29;19911;-86
2022/02/11 08:32:58;;;;;;;;;;;1.90;96.70;;;;;;4935228;29;19950;-86
2022/02/11 08:35:23;;;;;;;;;;;2.00;96.80;;;;;;4950234;28;20940;-85
2022/02/11 08:37:48;;;;;;;;;;;1.90;96.70;;;;;;4934857;29;20010;-85
2022/02/11 08:40:14;;;;;;;;;;;2.00;96.70;;;;;;4935973;29;19918;-85
2022/02/11 08:42:40;;;;;;;;;;;2.00;96.70;;;;;;4935589;29;20010;-86
2022/02/11 08:45:07;;;;;;;;;;;1.90;96.70;;;;;;4938131;29;19946;-86
2022/02/11 08:47:33;;;;;;;;;;;2.00;96.70;;;;;;4931922;29;20013;-86
2022/02/11 08:50:00;;;;;;;;;;;2.10;96.80;;;;;;4934292;29;19970;-85
2022/02/11 08:52:27;;;;;;;;;;;2.10;96.80;;;;;;4934533;29;19945;-85
2022/02/11 08:54:55;;;;;;;;;;;2.10;96.70;;;;;;4941029;29;19925;-86
2022/02/11 08:57:21;;;;;;;;;;;2.10;96.80;;;;;;4934175;29;19954;-85
2022/02/11 08:59:46;;;;;;;;;;;2.20;96.80;;;;;;4940716;28;19950;-85
2022/02/11 09:02:14;;;;;;;;;;;2.20;96.90;;;;;;4935414;29;19915;-85
2022/02/11 09:04:40;;;;;;;;;;;2.20;96.70;;;;;;4942239;29;19918;-86
2022/02/11 09:07:08;;;;;;;;;;;2.30;96.80;;;;;;4935977;29;20295;-85
2022/02/11 09:09:34;;;;;;;;;;;2.30;96.80;;;;;;4953526;28;20359;-85
2022/02/11 09:11:59;;;;;;;;;;;2.30;96.80;;;;;;4941853;28;19955;-85
2022/02/11 09:14:25;;;;;;;;;;;2.40;96.70;;;;;;4921376;29;19974;-85
2022/02/11 09:16:50;;;;;;;;;;;2.50;96.80;;;;;;4956239;28;19911;-86
2022/02/11 09:19:16;;;;;;;;;;;2.50;96.80;;;;;;4933193;29;19911;-86
2022/02/11 09:21:41;;;;;;;;;;;2.60;96.80;;;;;;4942977;29;19911;-86
2022/02/11 09:24:07;;;;;;;;;;;2.60;96.80;;;;;;4934274;29;19921;-86
2022/02/11 09:26:33;;;;;;;;;;;2.70;96.70;;;;;;4928788;29;19910;-86
2022/02/11 09:29:00;;;;;;;;;;;2.60;96.60;;;;;;4930014;29;19981;-86
2022/02/11 09:31:27;;;;;;;;;;;2.70;96.70;;;;;;4929070;29;20001;-85
2022/02/11 09:33:55;;;;;;;;;;;2.80;96.80;;;;;;4931408;29;19911;-86
2022/02/11 09:36:21;;;;;;;;;;;2.90;96.80;;;;;;4926297;29;19915;-85
2022/02/11 09:38:49;;;;;;;;;;;2.80;96.70;;;;;;4934311;29;19925;-86
2022/02/11 09:41:14;;;;;;;;;;;2.90;96.80;;;;;;4924777;29;19943;-86
2022/02/11 09:43:41;;;;;;;;;;;2.80;96.70;;;;;;4930883;29;20021;-86
2022/02/11 09:46:07;;;;;;;;;;;2.90;96.80;;;;;;4932785;29;19973;-85
2022/02/11 09:48:33;;;;;;;;;;;2.90;96.70;;;;;;4940086;28;21251;-86
2022/02/11 09:50:59;;;;;;;;;;;3.00;96.80;;;;;;4928517;29;19917;-86
2022/02/11 09:53:28;;;;;;;;;;;3.00;96.70;;;;;;4945989;28;19906;-86
2022/02/11 09:55:54;;;;;;;;;;;3.10;96.70;;;;;;4939499;29;19977;-86
2022/02/11 09:58:20;;;;;;;;;;;3.10;96.60;;;;;;4942926;29;19958;-86
2022/02/11 10:00:49;;;;;;;;;;;3.20;96.70;;;;;;4923122;29;19915;-86
2022/02/11 10:03:14;;;;;;;;;;;3.30;96.80;;;;;;4926246;29;19911;-86
2022/02/11 10:05:40;;;;;;;;;;;3.40;96.70;;;;;;4940018;29;20450;-85
2022/02/11 10:08:06;;;;;;;;;;;3.30;96.40;;;;;;4945227;29;19911;-85
2022/02/11 10:10:47;;;;;;;;;;;3.50;96.70;;;;;;4921259;29;19967;-85
2022/02/11 10:13:18;;;;;;;;;;;3.60;96.60;;;;;;4928023;29;20017;-85
2022/02/11 10:15:44;;;;;;;;;;;3.70;96.60;;;;;;4930844;29;19915;-85
2022/02/11 10:18:10;;;;;;;;;;;3.80;96.50;;;;;;4957649;28;19911;-85
2022/02/11 10:20:48;;;;;;;;;;;3.90;96.50;;;;;;4929271;29;20335;-85
2022/02/11 10:23:16;;;;;;;;;;;3.90;96.20;;;;;;4939775;29;20347;-86
2022/02/11 10:25:50;;;;;;;;;;;3.90;96.40;;;;;;4925976;29;20401;-85
2022/02/11 10:28:21;;;;;;;;;;;4.00;96.40;;;;;;4946464;29;19917;-85
2022/02/11 10:31:00;;;;;;;;;;;4.00;96.30;;;;;;4926209;29;20364;-86
2022/02/11 10:33:26;;;;;;;;;;;4.10;96.40;;;;;;4923821;29;20375;-85
2022/02/11 10:35:55;;;;;;;;;;;4.00;96.20;;;;;;4925113;29;20688;-86
2022/02/11 10:38:20;;;;;;;;;;;3.80;96.20;;;;;;4929166;29;20411;-86
2022/02/11 10:40:45;;;;;;;;;;;3.80;96.10;;;;;;4929505;29;19910;-86
2022/02/11 10:43:21;;;;;;;;;;;3.60;96.20;;;;;;4931507;29;19914;-87
2022/02/11 10:45:46;;;;;;;;;;;3.70;96.30;;;;;;4932650;29;19910;-86
2022/02/11 10:48:13;;;;;;;;;;;3.60;96.30;;;;;;4936792;29;19962;-86
2022/02/11 10:50:40;;;;;;;;;;;3.60;96.30;;;;;;4928773;29;19911;-86
2022/02/11 10:53:05;;;;;;;;;;;3.70;96.40;;;;;;4923787;29;19914;-87
2022/02/11 10:55:31;;;;;;;;;;;3.70;96.30;;;;;;4933000;29;19982;-86
2022/02/11 10:57:59;;;;;;;;;;;3.80;96.30;;;;;;4952472;28;20267;-86
2022/02/11 11:00:25;;;;;;;;;;;3.80;96.20;;;;;;4927763;29;20394;-86
2022/02/11 11:02:50;;;;;;;;;;;3.90;96.30;;;;;;4925136;29;19953;-86
2022/02/11 11:05:16;;;;;;;;;;;3.90;96.30;;;;;;4924031;29;20298;-86
2022/02/11 11:07:42;;;;;;;;;;;3.80;95.90;;;;;;4940320;29;19910;-86
2022/02/11 11:10:09;;;;;;;;;;;3.80;96.10;;;;;;4929424;29;20307;-86
2022/02/11 11:12:36;;;;;;;;;;;3.80;96.30;;;;;;4930523;29;19926;-86
2022/02/11 11:15:02;;;;;;;;;;;3.70;96.00;;;;;;4951121;28;20363;-86
2022/02/11 11:17:30;;;;;;;;;;;3.70;96.10;;;;;;4926986;29;19918;-86
2022/02/11 11:19:56;;;;;;;;;;;3.70;96.20;;;;;;4943960;29;20005;-86
2022/02/11 11:22:27;;;;;;;;;;;3.70;96.10;;;;;;4935311;29;20363;-86
2022/02/11 11:24:57;;;;;;;;;;;3.60;96.10;;;;;;4939393;28;19914;-86
2022/02/11 11:27:37;;;;;;;;;;;3.90;96.20;;;;;;4919453;29;19915;-87
2022/02/11 11:30:23;;;;;;;;;;;3.90;95.90;;;;;;4924609;29;19938;-86
2022/02/11 11:33:04;;;;;;;;;;;4.10;96.10;;;;;;4929108;29;19918;-86
2022/02/11 11:35:30;;;;;;;;;;;4.10;95.90;;;;;;4914490;29;20294;-87
2022/02/11 11:38:14;;;;;;;;;;;4.00;95.30;;;;;;4939354;28;19915;-86
2022/02/11 11:40:40;;;;;;;;;;;4.10;95.70;;;;;;4921474;29;19918;-87
2022/02/11 11:43:13;;;;;;;;;;;4.00;94.80;;;;;;4928919;29;19910;-86
2022/02/11 11:45:42;;;;;;;;;;;4.20;95.20;;;;;;4932109;28;20513;-86
2022/02/11 11:48:14;;;;;;;;;;;4.40;95.20;;;;;;4942091;28;20339;-87
2022/02/11 11:50:40;;;;;;;;;;;4.20;94.40;;;;;;4924684;29;19917;-86
2022/02/11 11:53:26;;;;;;;;;;;4.30;94.20;;;;;;4933208;28;19910;-86
2022/02/11 11:55:51;;;;;;;;;;;4.50;94.30;;;;;;4924115;29;19926;-86
2022/02/11 11:58:49;;;;;;;;;;;4.40;93.70;;;;;;4932220;29;20272;-86
2022/02/11 12:01:18;;;;;;;;;;;4.50;93.90;;;;;;4918952;29;20575;-86
2022/02/11 12:04:02;;;;;;;;;;;4.50;93.60;;;;;;4940866;29;19917;-86
2022/02/11 12:06:31;;;;;;;;;;;4.40;93.30;;;;;;4921987;29;19910;-86
2022/02/11 12:08:58;;;;;;;;;;;4.40;93.20;;;;;;4925049;29;19919;-86
2022/02/11 12:11:26;;;;;;;;;;;4.40;93.20;;;;;;4943325;29;19961;-86
2022/02/11 12:13:57;;;;;;;;;;;4.30;93.10;;;;;;4935337;29;20009;-86
2022/02/11 12:16:24;;;;;;;;;;;4.30;93.10;;;;;;4931512;29;19950;-85
2022/02/11 12:18:50;;;;;;;;;;;4.30;92.90;;;;;;4932096;29;19910;-86
2022/02/11 12:21:16;;;;;;;;;;;4.50;93.10;;;;;;4930836;29;20268;-86
2022/02/11 12:29:10;;;;;;;;;;;4.40;92.70;;;;;;4931398;29;20481;-86
2022/02/11 12:31:35;;;;;;;;;;;4.30;92.40;;;;;;4932473;29;19918;-85
2022/02/11 12:34:16;;;;;;;;;;;4.30;92.90;;;;;;4921877;29;19915;-86
2022/02/11 12:36:42;;;;;;;;;;;4.40;92.90;;;;;;4923963;29;20294;-86
2022/02/11 12:39:08;;;;;;;;;;;4.40;92.90;;;;;;4932259;29;19910;-86
2022/02/11 12:41:51;;;;;;;;;;;4.50;92.80;;;;;;4946568;29;19933;-86
2022/02/11 12:44:26;;;;;;;;;;;4.60;92.70;;;;;;4927877;29;19911;-86
2022/02/11 12:46:52;;;;;;;;;;;4.50;92.50;;;;;;4927305;29;20283;-86
2022/02/11 12:49:17;;;;;;;;;;;4.50;92.40;;;;;;4937996;28;19915;-85
2022/02/11 12:51:50;;;;;;;;;;;4.50;92.30;;;;;;4933093;29;20003;-85
2022/02/11 12:54:19;;;;;;;;;;;4.60;92.30;;;;;;4929012;29;20010;-85
2022/02/11 12:56:44;;;;;;;;;;;4.50;92.10;;;;;;4934394;29;19918;-85
2022/02/11 12:59:10;;;;;;;;;;;4.50;92.30;;;;;;4932069;29;20721;-85
2022/02/11 13:01:35;;;;;;;;;;;4.40;92.40;;;;;;4942032;29;19949;-86
2022/02/11 13:04:01;;;;;;;;;;;4.40;92.60;;;;;;4928483;29;19911;-86
2022/02/11 13:06:26;;;;;;;;;;;4.30;92.80;;;;;;4932757;29;19914;-85
2022/02/11 13:09:05;;;;;;;;;;;4.30;93.00;;;;;;4933582;29;20364;-86
2022/02/11 13:11:31;;;;;;;;;;;4.30;93.20;;;;;;4923238;29;19917;-86
2022/02/11 13:14:07;;;;;;;;;;;4.30;93.20;;;;;;4929941;29;19911;-86
2022/02/11 13:16:33;;;;;;;;;;;4.30;93.30;;;;;;4928419;29;19906;-86
2022/02/11 13:19:11;;;;;;;;;;;4.20;93.30;;;;;;4929713;29;20356;-86
2022/02/11 13:21:37;;;;;;;;;;;3.80;92.50;;;;;;4936749;29;19916;-86
2022/02/11 13:24:06;;;;;;;;;;;3.50;89.10;;;;;;4942977;28;19910;-86
2022/02/11 13:26:34;;;;;;;;;;;3.50;88.80;;;;;;4922053;29;19906;-85
2022/02/11 13:29:00;;;;;;;;;;;3.40;89.50;;;;;;4932640;29;20283;-86
2022/02/11 13:31:26;;;;;;;;;;;3.30;87.30;;;;;;4935915;29;19915;-86
2022/02/11 13:34:02;;;;;;;;;;;3.30;86.90;;;;;;4933579;28;20367;-86
2022/02/11 13:36:28;;;;;;;;;;;3.30;87.70;;;;;;4943186;29;19942;-86
2022/02/11 13:38:54;;;;;;;;;;;3.30;87.40;;;;;;4941247;29;20354;-86
2022/02/11 13:41:29;;;;;;;;;;;3.40;87.30;;;;;;4930205;29;20360;-86
2022/02/11 13:43:57;;;;;;;;;;;3.50;87.40;;;;;;4947492;28;19922;-87
2022/02/11 13:46:36;;;;;;;;;;;3.60;87.90;;;;;;4933414;29;19918;-87
2022/02/11 13:49:02;;;;;;;;;;;3.50;86.80;;;;;;4916046;29;19958;-86
2022/02/11 13:51:27;;;;;;;;;;;3.60;87.00;;;;;;4947076;28;20335;-85
2022/02/11 13:53:54;;;;;;;;;;;3.60;87.10;;;;;;4931097;29;19949;-86
2022/02/11 13:56:22;;;;;;;;;;;3.80;87.30;;;;;;4933061;29;19919;-86
2022/02/11 13:59:06;;;;;;;;;;;3.90;86.80;;;;;;4946469;29;19919;-87
2022/02/11 14:01:32;;;;;;;;;;;4.00;86.90;;;;;;4928613;29;19907;-86
2022/02/11 14:04:05;;;;;;;;;;;4.10;86.20;;;;;;4932672;29;19907;-86
2022/02/11 14:06:37;;;;;;;;;;;4.30;85.40;;;;;;4937913;29;19910;-86
2022/02/11 14:09:06;;;;;;;;;;;4.50;84.60;;;;;;4940187;29;20368;-86
2022/02/11 14:11:38;;;;;;;;;;;4.70;83.90;;;;;;4927394;29;19911;-86
2022/02/11 14:14:11;;;;;;;;;;;5.30;82.30;;;;;;4945040;29;19907;-86
2022/02/11 14:16:36;;;;;;;;;;;5.70;80.40;;;;;;4940601;28;19918;-87
2022/02/11 14:19:02;;;;;;;;;;;5.90;79.70;;;;;;4934054;29;20291;-86
2022/02/11 14:21:28;;;;;;;;;;;5.80;80.10;;;;;;4929686;29;19913;-87
2022/02/11 14:23:53;;;;;;;;;;;5.70;79.70;;;;;;4931794;29;19934;-86
2022/02/11 14:26:19;;;;;;;;;;;5.40;80.30;;;;;;4925147;29;19921;-86
2022/02/11 14:28:46;;;;;;;;;;;5.60;79.70;;;;;;4938492;29;19962;-86
2022/02/11 14:31:12;;;;;;;;;;;5.60;80.10;;;;;;4932722;29;20396;-86
2022/02/11 14:33:37;;;;;;;;;;;5.70;79.80;;;;;;4932716;29;19906;-86
2022/02/11 14:36:06;;;;;;;;;;;5.80;79.10;;;;;;4932540;29;20414;-86
2022/02/11 14:38:31;;;;;;;;;;;6.10;77.60;;;;;;4936600;29;19946;-86
2022/02/11 14:43:41;;;;;;;;;;;6.50;76.10;;;;;;4934372;29;19920;-85
2022/02/11 14:46:07;;;;;;;;;;;6.20;76.40;;;;;;4934343;29;19998;-86
2022/02/11 14:48:32;;;;;;;;;;;5.60;73.90;;;;;;4931869;29;20357;-86
2022/02/11 14:50:58;;;;;;;;;;;6.10;74.70;;;;;;4936624;28;19910;-85
2022/02/11 14:53:23;;;;;;;;;;;6.20;73.70;;;;;;4928904;29;19910;-85
2022/02/11 14:55:51;;;;;;;;;;;6.20;72.90;;;;;;4922611;29;19961;-85
2022/02/11 14:58:19;;;;;;;;;;;6.30;72.60;;;;;;4929503;29;19918;-85
2022/02/11 15:00:44;;;;;;;;;;;5.90;74.00;;;;;;4927507;29;19959;-84
2022/02/11 15:03:10;;;;;;;;;;;5.60;76.10;;;;;;4928338;29;19914;-84
2022/02/11 15:05:35;;;;;;;;;;;5.20;76.30;;;;;;4935025;29;19910;-84
2022/02/11 15:08:01;;;;;;;;;;;5.10;77.10;;;;;;4931279;29;20333;-84
2022/02/11 15:10:26;;;;;;;;;;;4.90;78.00;;;;;;4928285;29;19989;-84
2022/02/11 15:12:52;;;;;;;;;;;5.00;78.10;;;;;;4931634;29;19907;-84
2022/02/11 15:15:18;;;;;;;;;;;4.60;74.90;;;;;;4930533;29;19929;-86
2022/02/11 15:17:43;;;;;;;;;;;4.40;73.10;;;;;;4943406;28;20422;-86
2022/02/11 15:20:11;;;;;;;;;;;4.60;73.50;;;;;;4935239;29;20977;-86
2022/02/11 15:22:37;;;;;;;;;;;4.60;72.90;;;;;;4938389;29;19906;-87
2022/02/11 15:25:02;;;;;;;;;;;4.60;73.20;;;;;;4935001;29;20009;-87
2022/02/11 15:27:28;;;;;;;;;;;4.50;73.10;;;;;;4957807;28;19996;-86
2022/02/11 15:29:58;;;;;;;;;;;4.20;72.90;;;;;;4939348;29;19944;-86
2022/02/11 15:32:41;;;;;;;;;;;4.10;73.10;;;;;;4943382;29;19906;-86
2022/02/11 15:35:06;;;;;;;;;;;4.10;73.80;;;;;;4918375;29;20463;-86
2022/02/11 15:37:32;;;;;;;;;;;4.00;74.30;;;;;;4944498;28;19915;-86
2022/02/11 15:39:57;;;;;;;;;;;3.90;74.70;;;;;;4921195;29;19911;-86
2022/02/11 15:42:23;;;;;;;;;;;3.80;75.00;;;;;;4929639;29;19946;-86
2022/02/11 15:44:48;;;;;;;;;;;3.80;75.20;;;;;;4936495;29;19911;-86
2022/02/11 15:47:14;;;;;;;;;;;3.70;74.90;;;;;;4935128;29;19975;-86
2022/02/11 15:49:39;;;;;;;;;;;3.60;75.50;;;;;;4942598;28;20427;-86
2022/02/11 15:52:05;;;;;;;;;;;3.60;75.10;;;;;;4927140;29;19919;-86
2022/02/11 15:54:30;;;;;;;;;;;3.60;75.30;;;;;;4930140;29;19929;-86
2022/02/11 15:56:58;;;;;;;;;;;3.50;75.20;;;;;;4934919;29;19964;-86
2022/02/11 15:59:27;;;;;;;;;;;3.50;75.40;;;;;;4931584;29;19938;-86
2022/02/11 16:01:54;;;;;;;;;;;3.40;76.30;;;;;;4929286;29;20001;-86
2022/02/11 16:04:20;;;;;;;;;;;3.40;76.00;;;;;;4934803;29;19911;-86
2022/02/11 16:06:45;;;;;;;;;;;3.30;76.90;;;;;;4932504;29;20013;-86
2022/02/11 16:09:11;;;;;;;;;;;3.20;77.30;;;;;;4930285;29;19993;-86
2022/02/11 16:11:37;;;;;;;;;;;3.20;76.60;;;;;;4949620;28;19910;-85
2022/02/11 16:14:03;;;;;;;;;;;3.20;77.00;;;;;;4929739;29;19907;-86
2022/02/11 16:16:31;;;;;;;;;;;3.10;77.60;;;;;;4945207;28;19920;-86
2022/02/11 16:18:56;;;;;;;;;;;3.10;77.80;;;;;;4931685;29;19911;-86
2022/02/11 16:21:22;;;;;;;;;;;3.00;77.90;;;;;;4934208;29;19969;-87
2022/02/11 16:23:47;;;;;;;;;;;2.90;78.60;;;;;;4944128;29;20047;-86
2022/02/11 16:26:13;;;;;;;;;;;2.90;78.70;;;;;;4933474;29;19915;-86
2022/02/11 16:28:39;;;;;;;;;;;2.90;79.20;;;;;;4940335;28;19958;-86
2022/02/11 16:31:21;;;;;;;;;;;2.80;79.40;;;;;;4931630;29;19964;-86
2022/02/11 16:33:47;;;;;;;;;;;2.80;80.40;;;;;;4938344;28;19918;-86
2022/02/11 16:36:15;;;;;;;;;;;2.80;80.40;;;;;;4936149;29;19914;-86
2022/02/11 16:38:42;;;;;;;;;;;2.70;80.90;;;;;;4931086;29;20694;-86
2022/02/11 16:41:10;;;;;;;;;;;2.60;81.50;;;;;;4931155;29;19918;-86
2022/02/11 16:43:36;;;;;;;;;;;2.60;81.90;;;;;;4943225;29;19914;-86
2022/02/11 16:46:07;;;;;;;;;;;2.50;82.40;;;;;;4930957;29;19907;-86
2022/02/11 16:48:35;;;;;;;;;;;2.40;82.30;;;;;;4949671;28;20335;-86
2022/02/11 16:51:13;;;;;;;;;;;2.40;82.30;;;;;;4932305;29;19911;-86
2022/02/11 16:53:41;;;;;;;;;;;2.40;82.70;;;;;;4933505;29;19910;-86
2022/02/11 16:56:07;;;;;;;;;;;2.30;83.80;;;;;;4932452;29;19918;-86
2022/02/11 16:58:32;;;;;;;;;;;2.30;84.00;;;;;;4927395;29;20431;-86
2022/02/11 17:00:58;;;;;;;;;;;2.20;84.30;;;;;;4920808;29;20287;-86
2022/02/11 17:03:26;;;;;;;;;;;2.10;84.60;;;;;;4931795;29;19918;-86
2022/02/11 17:05:51;;;;;;;;;;;2.10;84.80;;;;;;4943095;28;20352;-87
2022/02/11 17:08:18;;;;;;;;;;;2.10;85.20;;;;;;4934057;29;19917;-86
2022/02/11 17:10:44;;;;;;;;;;;2.00;85.40;;;;;;4932811;29;19915;-86
2022/02/11 17:13:10;;;;;;;;;;;2.00;85.40;;;;;;4930604;29;19943;-86
2022/02/11 17:15:35;;;;;;;;;;;2.00;85.90;;;;;;4923034;29;19921;-86
2022/02/11 17:18:01;;;;;;;;;;;2.10;85.80;;;;;;4923914;29;20014;-86
2022/02/11 17:20:28;;;;;;;;;;;2.00;86.00;;;;;;4928654;29;20005;-86
2022/02/11 17:22:53;;;;;;;;;;;2.00;86.30;;;;;;4922847;29;19918;-86
2022/02/11 17:25:19;;;;;;;;;;;2.00;86.30;;;;;;4933856;29;19910;-86
2022/02/11 17:27:45;;;;;;;;;;;2.00;86.40;;;;;;4930379;29;20372;-86
2022/02/11 17:30:11;;;;;;;;;;;2.00;86.60;;;;;;4941715;28;19922;-86
2022/02/11 17:32:37;;;;;;;;;;;1.90;86.60;;;;;;4935854;29;20331;-85
2022/02/11 17:35:03;;;;;;;;;;;1.90;86.70;;;;;;4923227;29;20379;-85
2022/02/11 17:37:28;;;;;;;;;;;2.00;86.50;;;;;;4927058;29;19910;-85
2022/02/11 17:39:55;;;;;;;;;;;1.90;86.80;;;;;;4930745;29;19911;-85
2022/02/11 17:42:23;;;;;;;;;;;1.90;86.90;;;;;;4930982;29;20348;-85
2022/02/11 17:44:48;;;;;;;;;;;1.90;86.60;;;;;;4930769;29;19910;-85
2022/02/11 17:47:14;;;;;;;;;;;1.80;86.70;;;;;;4931256;29;20005;-85
2022/02/11 17:49:40;;;;;;;;;;;1.90;86.80;;;;;;4929876;29;19910;-85
2022/02/11 17:52:05;;;;;;;;;;;1.80;86.80;;;;;;4941282;28;19915;-85
2022/02/11 17:54:31;;;;;;;;;;;1.80;86.20;;;;;;4937395;28;19934;-85
2022/02/11 17:56:57;;;;;;;;;;;1.80;86.20;;;;;;4936296;29;20398;-85